Date,TemperatureHighF,TemperatureAvgF,TemperatureLowF,DewpointHighF,DewpointAvgF,DewpointLowF,HumidityHigh,HumidityAvg,HumidityLow,PressureMaxIn,PressureMinIn,WindSpeedMaxMPH,WindSpeedAvgMPH,GustSpeedMaxMPH,PrecipitationSumIn
2013-1-1,62,50,42,42,36,22,91,62,22,30.26,30.09,14,2,14,0.00
2013-1-2,68,52,41,37,30,11,80,48,12,30.15,30.03,12,3,12,0.00
2013-1-3,72,53,39,37,29,14,86,47,12,30.19,30.07,8,2,8,0.00
2013-1-4,68,52,42,35,26,13,69,42,12,30.29,30.17,9,2,9,0.00
2013-1-5,66,51,39,42,34,22,85,56,19,30.31,30.18,8,2,8,0.00
2013-1-6,58,51,46,49,45,42,95,80,59,30.22,30.03,20,4,20,0.06
2013-1-7,67,52,41,45,40,32,94,68,30,30.12,29.98,14,3,14,0.00
2013-1-8,72,54,42,53,45,35,92,72,30,30.13,30.03,10,2,10,0.00
2013-1-9,68,55,44,52,47,40,94,76,36,30.14,30.02,9,2,9,0.00
2013-1-10,58,53,47,51,36,21,92,56,24,30.10,29.91,25,10,25,0.00
2013-1-11,55,49,42,30,25,20,54,39,28,30.19,30.05,24,10,24,0.00
2013-1-12,57,46,36,35,26,16,79,49,20,30.18,30.07,12,3,12,0.00
2013-1-13,57,46,38,32,26,14,70,49,20,30.19,30.07,14,3,14,0.00
2013-1-14,56,46,36,29,13,-3,63,30,11,30.35,30.15,12,4,12,0.00
2013-1-15,61,46,34,43,25,12,89,49,16,30.48,30.33,13,3,13,0.00
2013-1-16,70,52,37,44,33,26,88,54,19,30.37,30.13,12,2,12,0.00
2013-1-17,80,60,44,37,28,14,75,37,9,30.18,30.04,8,3,8,0.00
2013-1-18,80,62,48,32,25,15,54,28,9,30.15,30.03,13,4,13,0.00
2013-1-19,81,63,47,30,23,6,46,26,7,30.19,30.06,12,3,12,0.00
2013-1-20,82,61,46,30,23,10,45,27,7,30.15,29.99,9,3,9,0.00
2013-1-21,82,61,46,30,24,7,49,28,6,30.09,29.99,12,4,12,0.00
2013-1-22,81,62,45,32,23,7,46,26,6,30.11,30.00,8,2,8,0.00
2013-1-23,74,63,54,53,37,28,80,39,21,30.15,30.01,12,2,12,0.00
2013-1-24,67,60,54,57,54,50,94,82,65,30.22,30.09,14,5,14,0.63
2013-1-25,68,62,59,59,58,56,92,85,69,30.12,29.94,13,4,13,0.08
2013-1-26,66,60,55,62,58,54,96,91,70,30.01,29.90,12,3,12,0.09
2013-1-27,61,55,49,56,49,40,97,79,58,30.04,29.97,15,6,15,0.03
2013-1-28,61,51,40,42,35,26,91,57,27,30.19,30.03,21,5,21,0.00
2013-1-29,61,50,40,45,39,31,85,66,40,30.25,30.16,12,3,12,0.00
2013-1-30,71,55,42,45,41,37,94,64,30,30.35,30.21,10,2,10,0.00
2013-1-31,78,59,45,45,42,37,90,57,23,30.25,30.08,12,2,12,0.00
2013-2-1,75,60,46,49,44,41,81,58,33,30.17,30.09,12,2,12,0.00
2013-2-2,76,64,54,54,46,38,79,56,26,30.19,30.09,14,2,14,0.00
2013-2-3,76,63,54,55,51,45,87,67,34,30.14,29.99,13,3,13,0.00
2013-2-4,69,57,48,55,51,46,94,81,56,30.11,29.98,10,3,10,0.00
2013-2-5,59,55,53,51,50,49,90,83,74,30.11,30.00,10,3,10,0.00
2013-2-6,64,57,49,50,49,46,89,75,54,30.12,30.01,13,4,13,0.00
2013-2-7,61,53,44,50,46,42,95,79,66,30.16,30.00,12,3,12,0.00
2013-2-8,54,49,42,48,42,39,90,75,62,30.01,29.90,23,6,23,0.09
2013-2-9,57,48,37,42,39,35,95,74,48,30.12,29.95,12,3,12,0.01
2013-2-10,57,50,41,45,42,38,90,74,57,30.12,30.02,10,2,10,0.00
2013-2-11,62,51,40,44,40,34,93,70,36,30.25,30.07,15,4,15,0.00
2013-2-12,64,51,39,44,38,26,89,64,29,30.37,30.24,13,3,13,0.00
2013-2-13,69,54,40,44,40,32,92,63,26,30.28,30.13,12,3,12,0.00
2013-2-14,77,57,42,49,42,31,91,62,19,30.22,30.04,12,3,12,0.00
2013-2-15,83,64,49,43,32,19,72,36,10,30.19,30.10,12,3,12,0.00
2013-2-16,83,65,52,31,24,8,44,24,7,30.15,29.97,14,4,14,0.00
2013-2-17,66,56,48,51,45,30,92,68,44,30.04,29.92,14,5,14,0.00
2013-2-18,54,54,54,48,48,48,80,79,78,30.04,30.03,9,4,9,0.00
2013-2-20,60,54,46,43,35,28,80,49,37,30.01,29.72,25,10,25,0.01
2013-2-21,63,52,43,43,40,34,85,66,35,30.11,29.97,14,4,14,0.00
2013-2-22,65,53,40,47,41,35,90,67,37,30.22,30.10,14,3,14,0.00
2013-2-23,65,53,41,49,42,37,86,69,41,30.17,29.93,16,3,16,0.00
2013-2-24,69,56,44,45,31,12,93,49,11,30.20,30.00,15,4,15,0.00
2013-2-25,68,54,40,41,31,17,82,45,16,30.24,30.07,15,3,15,0.00
2013-2-26,75,56,41,47,38,25,92,57,16,30.12,29.98,12,3,12,0.00
2013-2-27,76,60,48,40,27,12,69,33,9,30.26,30.12,16,4,16,0.00
2013-2-28,80,62,47,37,26,11,56,31,8,30.32,30.22,16,4,16,0.00
2013-3-1,87,67,49,35,28,15,56,29,7,30.30,30.12,16,4,16,0.00
2013-3-2,84,68,53,48,33,21,68,31,10,30.20,30.06,13,4,13,0.00
2013-3-3,70,60,54,53,48,36,89,67,31,30.10,29.97,12,5,12,0.00
2013-3-4,69,59,53,52,51,49,89,76,51,30.10,30.01,16,4,16,0.00
2013-3-5,65,56,51,53,50,47,91,81,64,30.14,30.03,13,4,13,0.00
2013-3-6,65,57,49,50,45,42,81,67,45,30.17,30.02,14,5,14,0.00
2013-3-7,60,56,53,52,49,45,92,79,59,30.02,29.85,15,5,15,0.03
2013-3-8,57,53,47,48,45,38,93,75,52,30.03,29.79,17,7,17,0.44
2013-3-9,64,56,49,48,46,40,89,71,44,30.22,30.02,13,4,13,0.00
2013-3-10,72,58,44,48,41,29,88,59,22,30.28,30.15,15,4,15,0.00
2013-3-11,76,60,46,51,43,38,78,56,28,30.19,30.03,12,3,12,0.00
2013-3-12,80,62,47,52,47,39,88,63,29,30.09,29.99,10,3,10,0.00
2013-3-13,83,64,50,57,49,42,91,62,30,30.12,30.00,10,3,10,0.00
2013-3-14,82,63,52,57,52,48,97,71,36,30.09,29.99,12,4,12,0.00
2013-3-15,72,60,54,56,53,52,93,80,52,30.04,29.93,12,5,12,0.00
2013-3-16,68,58,52,54,51,49,94,81,57,29.99,29.88,13,5,13,0.00
2013-3-17,68,59,55,54,52,50,88,77,57,30.01,29.93,12,5,12,0.00
2013-3-18,65,58,54,52,51,50,85,77,63,30.09,29.99,13,4,13,0.00
2013-3-19,68,58,50,55,51,48,92,80,62,30.12,30.05,13,3,13,0.00
2013-3-20,72,61,52,55,52,49,92,74,52,30.10,29.96,12,4,12,0.00
2013-3-21,71,61,52,56,52,49,91,74,53,29.96,29.80,14,5,14,0.00
2013-3-22,70,60,55,54,52,50,90,76,53,29.91,29.81,14,5,14,0.00
2013-3-23,72,60,52,54,52,49,90,75,50,30.02,29.91,13,4,13,0.00
2013-3-24,77,62,54,55,53,49,91,73,40,30.03,29.88,14,4,14,0.00
2013-3-25,76,62,53,56,53,44,96,76,40,29.99,29.88,12,4,12,0.00
2013-3-26,70,62,56,55,53,51,92,76,55,29.97,29.89,15,5,15,0.00
2013-3-27,69,61,56,54,52,50,86,74,55,30.04,29.93,14,5,14,0.00
2013-3-28,74,62,55,56,53,52,89,75,47,30.08,30.00,15,4,15,0.00
2013-3-29,73,62,55,58,55,52,92,79,56,30.11,30.03,15,4,15,0.00
2013-3-30,72,62,57,57,54,49,89,76,56,30.13,30.04,14,6,14,0.00
2013-3-31,68,61,57,57,54,52,86,79,64,30.13,30.05,16,6,16,0.00
2013-4-1,66,60,55,54,52,49,87,76,58,30.17,30.07,18,6,18,0.00
2013-4-2,71,61,53,55,52,50,90,74,53,30.10,29.98,13,4,13,0.00
2013-4-3,76,63,55,58,54,51,92,75,42,30.09,29.97,14,4,14,0.00
2013-4-4,72,63,58,56,54,52,89,75,52,30.11,30.00,14,5,14,0.00
2013-4-5,69,62,58,57,55,54,88,80,64,30.09,29.99,14,6,14,0.00
2013-4-6,70,63,57,56,54,53,87,76,59,30.08,29.95,17,5,17,0.00
2013-4-7,71,62,56,56,54,52,89,77,56,29.98,29.81,16,5,16,0.00
2013-4-8,69,62,56,55,43,29,88,55,26,29.82,29.64,26,12,26,0.00
2013-4-9,77,64,53,47,35,16,65,36,10,30.00,29.81,24,8,24,0.00
2013-4-10,80,65,50,48,38,20,74,43,11,30.10,29.97,17,5,17,0.00
2013-4-11,73,62,53,55,49,38,81,65,31,30.00,29.78,15,5,15,0.00
2013-4-12,73,62,57,55,52,51,84,72,51,29.90,29.77,16,5,16,0.00
2013-4-13,62,58,56,55,54,51,90,84,76,29.92,29.84,12,5,12,0.00
2013-4-14,63,58,55,53,51,49,83,77,67,29.89,29.82,13,6,13,0.00
2013-4-15,64,59,56,54,51,47,91,76,64,29.91,29.84,18,7,18,0.01
2013-4-16,65,57,52,50,44,28,78,63,28,29.98,29.88,20,6,22,0.00
2013-4-17,72,63,54,42,29,14,60,30,11,30.11,29.98,24,8,24,0.00
2013-4-18,80,64,50,40,28,8,64,33,7,30.20,30.10,23,6,23,0.00
2013-4-19,85,68,50,50,30,8,66,32,6,30.16,29.96,18,5,18,0.00
2013-4-20,83,68,53,56,49,39,86,55,24,29.99,29.86,14,4,14,0.00
2013-4-21,79,64,56,58,53,44,96,71,31,30.01,29.92,13,4,13,0.00
2013-4-22,73,62,58,54,53,52,87,73,50,30.01,29.89,14,6,14,0.00
2013-4-23,76,63,58,54,52,50,82,69,46,29.98,29.84,14,6,14,0.00
2013-4-24,63,60,59,55,53,48,85,76,60,29.98,29.90,13,5,13,0.01
2013-4-25,72,63,58,54,52,48,84,67,44,30.11,29.96,15,5,15,0.00
2013-4-26,77,64,53,55,52,49,88,66,40,30.15,30.08,15,4,15,0.00
2013-4-27,77,65,53,59,54,49,88,70,46,30.15,29.98,14,4,14,0.00
2013-4-28,77,65,59,59,56,54,89,75,54,30.02,29.84,14,5,14,0.00
2013-4-29,70,62,58,57,56,54,91,79,61,29.91,29.77,15,6,15,0.00
2013-4-30,66,61,58,56,54,53,82,77,67,29.90,29.82,14,6,14,0.00
2013-5-1,78,66,60,57,55,54,82,69,46,30.08,29.90,13,5,13,0.00
2013-5-2,94,72,56,56,48,16,89,51,7,30.11,29.97,17,5,17,0.00
2013-5-3,93,76,59,55,32,12,66,27,6,30.00,29.76,16,5,16,0.00
2013-5-4,71,65,60,58,56,51,90,73,56,29.85,29.74,17,8,17,0.00
2013-5-5,66,62,58,55,53,50,90,72,58,29.95,29.83,20,9,20,0.00
2013-5-6,68,62,56,59,55,52,95,81,57,30.01,29.90,15,7,15,0.42
2013-5-7,70,63,58,56,53,47,90,70,45,30.07,29.98,15,5,15,0.01
2013-5-8,70,64,60,56,52,47,83,67,46,30.09,30.06,18,6,18,0.00
2013-5-9,71,63,55,58,54,50,89,74,57,30.09,30.01,14,4,14,0.02
2013-5-10,80,67,58,60,57,55,93,73,51,30.08,29.99,15,4,15,0.00
2013-5-11,84,70,60,64,60,57,92,73,47,30.07,29.96,13,4,13,0.00
2013-5-12,91,74,61,64,60,53,94,65,32,30.05,29.89,14,4,14,0.00
2013-5-13,96,80,65,62,56,48,83,49,21,29.95,29.84,15,5,15,0.00
2013-5-14,83,70,62,58,55,49,80,61,36,29.99,29.88,16,5,16,0.00
2013-5-15,74,65,60,58,56,55,85,73,55,30.03,29.94,13,6,13,0.00
2013-5-16,73,65,61,58,56,54,82,72,58,29.98,29.88,16,5,16,0.00
2013-5-17,72,66,62,59,57,54,84,73,60,29.99,29.90,17,6,17,0.00
2013-5-18,74,66,60,57,56,54,85,70,55,30.03,29.95,13,5,13,0.00
2013-5-19,75,67,60,60,57,55,85,71,56,29.99,29.86,14,5,14,0.00
2013-5-20,83,69,58,62,59,55,89,73,47,29.95,29.86,13,5,13,0.00
2013-5-21,79,68,63,62,60,58,87,75,55,29.93,29.82,14,5,14,0.00
2013-5-22,74,67,63,59,57,55,84,71,57,29.85,29.76,17,6,17,0.00
2013-5-23,72,65,59,56,54,50,81,68,53,29.92,29.81,14,7,14,0.00
2013-5-24,72,65,58,56,54,51,81,68,55,29.98,29.91,13,5,13,0.00
2013-5-25,75,65,58,57,54,52,80,68,47,30.02,29.95,16,6,16,0.00
2013-5-26,72,65,58,56,55,53,86,72,56,30.04,29.98,14,6,14,0.00
2013-5-27,76,67,60,59,57,54,83,71,54,30.00,29.85,16,6,16,0.00
2013-5-28,78,68,62,61,58,56,85,73,48,29.88,29.73,16,7,16,0.00
2013-5-29,81,69,62,63,59,53,87,71,40,29.81,29.70,16,6,16,0.00
2013-5-30,77,68,61,62,60,57,89,75,55,29.87,29.75,12,5,12,0.00
2013-5-31,81,69,63,62,60,58,85,73,52,29.91,29.79,13,5,13,0.00
2013-6-1,84,70,64,65,62,60,87,76,51,29.85,29.73,16,5,16,0.00
2013-6-2,71,66,64,62,60,57,84,80,70,29.83,29.76,14,6,14,0.00
2013-6-3,73,67,63,61,58,57,81,74,63,29.89,29.79,14,6,14,0.00
2013-6-4,76,66,62,59,58,57,82,74,55,29.96,29.88,16,6,16,0.00
2013-6-5,75,66,62,58,57,56,84,73,54,30.00,29.90,16,6,16,0.00
2013-6-6,76,66,61,61,58,56,86,76,57,29.95,29.86,15,5,15,0.00
2013-6-7,76,66,61,62,58,56,85,77,61,29.91,29.77,14,5,14,0.00
2013-6-8,72,65,62,60,58,57,86,80,67,29.90,29.78,13,6,13,0.00
2013-6-9,73,65,61,61,58,56,86,78,65,29.93,29.86,13,5,13,0.00
2013-6-10,78,68,61,59,57,55,84,69,48,29.95,29.88,17,6,17,0.00
2013-6-11,84,70,62,62,60,58,87,70,43,29.93,29.86,13,6,13,0.00
2013-6-12,73,66,64,62,60,58,86,79,68,30.02,29.91,12,6,12,0.00
2013-6-13,79,68,63,60,59,58,84,73,52,30.01,29.88,13,5,13,0.00
2013-6-14,74,66,61,60,58,56,86,76,60,29.92,29.83,13,6,13,0.00
2013-6-15,75,66,61,59,57,56,84,72,53,29.97,29.89,16,6,16,0.00
2013-6-16,79,68,62,60,58,57,85,71,51,30.03,29.93,16,5,16,0.00
2013-6-17,80,69,60,62,59,56,89,73,52,29.98,29.87,14,5,14,0.00
2013-6-18,78,69,62,62,60,55,90,74,52,29.92,29.81,14,5,14,0.00
2013-6-19,79,70,63,61,57,48,88,67,34,29.87,29.77,16,6,16,0.00
2013-6-20,81,70,60,61,58,47,90,67,32,29.86,29.78,12,4,12,0.00
2013-6-21,80,70,62,61,58,52,90,68,39,29.90,29.82,13,6,13,0.00
2013-6-22,78,70,63,62,59,57,87,71,49,29.90,29.79,13,6,13,0.00
2013-6-23,74,67,64,61,58,57,86,74,59,29.88,29.78,13,6,13,0.00
2013-6-24,76,68,63,61,59,57,84,73,56,29.94,29.82,14,6,14,0.00
2013-6-25,77,69,63,63,61,59,88,77,59,29.99,29.89,12,4,12,0.00
2013-6-26,87,74,63,66,62,59,89,69,49,29.97,29.88,13,5,13,0.00
2013-6-27,89,75,66,67,64,62,91,71,45,30.01,29.94,13,5,13,0.00
2013-6-28,92,76,64,67,64,62,93,69,43,29.98,29.84,14,5,14,0.00
2013-6-29,91,80,68,68,64,60,81,60,40,29.87,29.72,14,4,14,0.00
2013-6-30,88,75,69,68,65,63,87,73,48,29.81,29.70,16,5,16,0.00
2013-7-1,94,75,66,66,64,59,91,72,32,29.88,29.78,13,4,13,0.00
2013-7-2,81,72,67,67,65,63,92,78,59,29.98,29.86,14,5,14,0.00
2013-7-3,83,72,65,66,64,61,92,77,55,29.93,29.78,14,5,14,0.00
2013-7-4,84,72,65,64,62,61,89,74,50,29.82,29.73,13,5,13,0.00
2013-7-5,81,70,66,64,62,61,87,76,54,29.83,29.75,15,5,15,0.00
2013-7-6,81,71,66,65,63,62,87,76,57,29.82,29.74,13,5,13,0.00
2013-7-7,82,72,67,66,63,61,85,73,55,29.85,29.75,13,5,13,0.00
2013-7-8,88,74,64,66,61,56,86,67,39,29.91,29.83,14,5,14,0.00
2013-7-9,82,74,65,65,62,60,85,69,50,29.99,29.87,16,5,16,0.00
2013-7-10,78,72,68,66,65,63,85,77,63,29.96,29.88,12,4,12,0.00
2013-7-11,75,72,69,67,65,64,86,80,73,29.96,29.87,12,4,12,0.00
2013-7-12,84,73,65,68,64,60,89,76,54,29.92,29.83,13,5,13,0.00
2013-7-13,84,72,64,65,62,59,89,73,47,29.95,29.83,13,5,13,0.00
2013-7-14,86,73,64,65,62,60,89,71,47,29.92,29.80,15,5,15,0.00
2013-7-15,86,74,66,66,61,53,89,67,37,29.86,29.78,16,5,16,0.00
2013-7-16,86,72,60,61,57,49,85,62,37,29.97,29.85,15,5,15,0.00
2013-7-17,89,73,60,58,54,43,78,55,24,30.00,29.92,15,5,15,0.00
2013-7-18,84,72,60,63,59,55,83,66,48,29.98,29.84,13,5,13,0.00
2013-7-19,81,70,63,64,62,58,87,75,55,29.90,29.81,12,5,12,0.00
2013-7-20,76,69,66,65,62,61,85,81,68,29.88,29.78,13,4,13,0.00
2013-7-21,71,68,65,64,62,61,88,83,78,29.91,29.79,9,4,9,0.00
2013-7-22,85,73,66,66,63,62,88,72,52,29.96,29.90,13,5,13,0.00
2013-7-23,83,72,66,66,62,58,85,72,53,30.01,29.91,15,6,15,0.00
2013-7-24,80,70,63,64,61,59,88,75,55,29.96,29.88,14,6,14,0.00
2013-7-25,82,70,63,64,61,59,87,74,54,30.00,29.91,14,5,14,0.00
2013-7-26,85,72,65,65,62,59,86,73,50,30.08,29.95,13,4,13,0.01
2013-7-27,81,71,64,65,61,59,86,74,57,30.00,29.86,14,5,14,0.00
2013-7-28,78,68,63,62,60,58,87,78,57,29.92,29.85,14,6,14,0.00
2013-7-29,79,69,64,60,58,57,84,70,51,30.03,29.91,13,5,13,0.00
2013-7-30,80,68,62,61,59,57,86,72,52,30.12,30.01,16,5,16,0.00
2013-7-31,76,67,62,61,58,57,85,75,59,30.10,29.98,14,6,14,0.00
2013-8-1,78,68,62,61,59,57,85,73,55,30.02,29.89,14,5,14,0.00
2013-8-2,81,70,63,61,60,58,86,72,46,29.96,29.88,14,5,14,0.00
2013-8-3,80,70,64,63,60,59,84,73,55,29.99,29.90,14,5,14,0.00
2013-8-4,80,69,63,63,60,58,87,75,52,30.01,29.91,14,5,14,0.00
2013-8-5,82,69,61,62,59,58,91,74,46,30.00,29.90,13,5,13,0.00
2013-8-6,81,69,62,60,59,57,88,72,47,30.03,29.95,15,6,15,0.00
2013-8-7,79,68,62,61,59,57,88,74,51,30.08,29.95,12,5,12,0.00
2013-8-8,79,68,59,62,59,55,90,73,53,29.99,29.89,13,5,13,0.00
2013-8-9,78,68,60,61,59,56,88,74,55,29.96,29.90,13,4,13,0.00
2013-8-10,77,68,62,60,59,58,88,74,53,30.03,29.93,17,5,17,0.00
2013-8-11,82,69,62,62,59,57,89,74,48,29.99,29.87,14,5,14,0.00
2013-8-12,81,69,63,63,60,58,88,75,53,29.97,29.87,14,5,14,0.00
2013-8-13,84,70,63,64,61,59,89,74,50,29.97,29.84,13,5,13,0.00
2013-8-14,82,70,63,65,62,60,89,78,56,29.92,29.81,13,5,13,0.00
2013-8-15,84,72,64,65,62,60,89,74,50,29.93,29.85,12,4,12,0.00
2013-8-16,87,74,65,66,62,54,90,69,41,29.94,29.87,13,4,13,0.00
2013-8-17,88,73,65,64,61,58,86,68,39,29.94,29.79,13,5,13,0.00
2013-8-18,79,69,63,65,62,60,91,78,59,29.91,29.81,13,5,13,0.00
2013-8-19,82,70,65,65,62,61,87,77,55,29.94,29.83,13,4,13,0.00
2013-8-20,84,71,64,64,61,60,88,74,46,29.93,29.82,13,5,13,0.00
2013-8-21,86,72,62,63,59,55,88,66,44,29.91,29.81,15,5,15,0.00
2013-8-22,89,75,64,62,57,51,84,57,30,29.91,29.78,15,5,15,0.00
2013-8-23,90,74,63,62,59,53,84,61,35,29.85,29.71,14,4,14,0.00
2013-8-24,84,71,61,64,60,56,90,71,46,29.87,29.73,14,4,14,0.00
2013-8-25,87,71,60,63,59,54,94,70,33,29.90,29.83,12,4,12,0.00
2013-8-26,92,78,67,67,59,46,81,55,30,29.90,29.78,15,5,15,0.00
2013-8-27,89,77,69,65,60,50,78,57,27,29.83,29.74,14,5,14,0.00
2013-8-28,94,79,68,64,59,47,80,54,26,29.87,29.75,16,5,16,0.00
2013-8-29,99,81,70,64,60,50,73,53,25,29.92,29.84,13,4,13,0.00
2013-8-30,93,84,76,72,66,60,65,55,44,29.96,29.88,15,5,15,0.00
2013-8-31,92,82,76,71,67,60,73,60,49,29.95,29.85,18,5,18,0.00
2013-9-1,88,80,74,71,68,64,79,67,55,29.92,29.83,16,6,16,0.00
2013-9-2,89,78,69,70,67,66,89,72,50,29.91,29.78,14,5,14,0.00
2013-9-3,96,81,72,70,66,63,82,63,37,29.89,29.79,16,4,16,0.00
2013-9-4,96,82,72,67,63,59,77,55,31,29.89,29.81,16,4,16,0.00
2013-9-5,97,82,71,66,62,57,77,52,31,29.87,29.79,14,4,14,0.00
2013-9-6,100,82,70,66,61,49,81,51,21,29.85,29.77,14,4,14,0.00
2013-9-7,98,81,70,65,61,54,77,53,28,29.85,29.77,16,4,16,0.00
2013-9-8,88,74,66,64,61,55,84,66,39,29.84,29.74,14,4,14,0.00
2013-9-9,82,71,64,64,60,59,87,72,50,29.80,29.72,13,5,13,0.00
2013-9-10,80,69,62,61,59,58,88,73,51,29.93,29.80,14,4,14,0.00
2013-9-11,79,68,61,62,60,57,87,76,55,30.00,29.90,14,4,14,0.00
2013-9-12,87,72,61,63,60,57,90,69,39,29.93,29.80,14,4,14,0.00
2013-9-13,88,73,61,65,60,56,86,66,39,29.82,29.64,12,3,12,0.00
2013-9-14,87,75,64,67,62,57,89,67,39,29.71,29.60,12,4,12,0.00
2013-9-15,93,74,65,66,62,59,91,69,37,29.75,29.68,16,4,16,0.00
2013-9-16,90,75,64,64,60,56,89,63,36,29.81,29.71,14,4,14,0.00
2013-9-17,77,68,63,63,61,59,94,80,60,29.82,29.71,12,4,12,0.00
2013-9-18,77,69,63,61,60,58,91,74,56,29.81,29.72,12,4,12,0.00
2013-9-19,80,68,61,63,61,58,91,79,57,29.82,29.74,13,4,13,0.00
2013-9-20,73,68,66,63,62,60,84,80,68,29.88,29.80,10,4,10,0.00
2013-9-21,77,69,64,61,59,57,83,72,54,29.91,29.79,16,5,16,0.00
2013-9-22,77,68,60,60,56,48,90,67,39,29.84,29.77,15,4,15,0.00
2013-9-23,93,74,59,59,50,37,77,49,16,29.88,29.78,14,4,14,0.00
2013-9-24,88,74,60,61,52,41,79,52,21,29.91,29.81,14,4,14,0.00
2013-9-25,75,68,61,61,58,51,85,72,59,29.84,29.69,15,5,15,0.00
2013-9-26,75,67,62,57,51,32,78,58,23,29.87,29.71,20,6,20,0.00
2013-9-27,84,68,54,52,43,27,79,46,14,29.97,29.87,17,4,17,0.00
2013-9-28,90,71,55,44,37,21,59,34,9,30.02,29.93,20,4,20,0.00
2013-9-29,88,70,55,50,42,32,60,39,14,30.06,29.94,14,3,14,0.00
2013-9-30,84,70,56,62,53,43,91,60,24,29.98,29.83,12,3,12,0.00
2013-10-1,80,68,58,62,58,53,88,73,44,29.93,29.84,12,4,12,0.00
2013-10-2,76,68,63,61,59,57,85,74,56,29.96,29.85,12,5,12,0.00
2013-10-3,74,67,62,60,59,57,87,76,59,29.92,29.80,13,4,13,0.00
2013-10-4,90,73,60,60,48,14,90,51,6,30.01,29.87,16,4,16,0.00
2013-10-5,91,76,61,37,25,12,37,18,6,30.09,29.99,25,6,25,0.00
2013-10-6,92,74,58,50,31,13,50,26,6,30.07,29.93,13,4,13,0.00
2013-10-7,86,69,59,60,46,28,85,46,14,29.96,29.87,13,3,13,0.00
2013-10-8,72,64,58,58,56,54,88,74,55,29.92,29.80,14,5,14,0.00
2013-10-9,65,61,53,55,51,45,83,70,54,29.82,29.70,21,7,21,0.05
2013-10-10,69,59,49,52,49,46,90,70,45,30.00,29.80,12,3,12,0.01
2013-10-11,76,62,51,56,52,47,88,71,39,30.04,29.93,14,3,14,0.00
2013-10-12,75,63,52,60,55,50,95,78,54,29.97,29.87,14,3,14,0.00
2013-10-13,70,64,58,57,55,53,90,75,59,30.01,29.92,12,3,12,0.00
2013-10-14,85,67,54,56,52,44,91,64,25,30.01,29.87,12,3,12,0.00
2013-10-15,88,71,55,51,40,26,72,39,11,29.95,29.83,16,3,16,0.00
2013-10-16,87,72,60,42,33,22,50,27,10,30.05,29.95,14,4,14,0.00
2013-10-17,83,67,54,53,40,32,68,40,16,30.02,29.90,14,3,14,0.00
2013-10-18,86,67,53,56,48,39,79,55,20,30.00,29.90,12,3,12,0.00
2013-10-19,85,67,53,61,50,43,81,58,24,30.00,29.93,12,3,12,0.00
2013-10-20,77,64,56,60,56,50,95,77,51,29.98,29.88,12,3,12,0.00
2013-10-21,77,64,58,58,57,54,93,78,47,29.98,29.88,10,3,10,0.00
2013-10-22,78,63,54,59,56,51,93,81,51,30.00,29.88,12,3,12,0.00
2013-10-23,70,63,57,58,56,54,91,79,65,29.96,29.89,12,3,12,0.00
2013-10-24,71,63,59,57,56,54,86,76,60,30.04,29.94,14,3,14,0.00
2013-10-25,75,63,56,59,56,53,91,79,55,30.12,29.99,12,3,12,0.00
2013-10-26,78,63,56,60,58,54,96,84,53,30.08,29.95,9,2,9,0.00
2013-10-27,71,62,57,61,58,54,97,86,68,29.97,29.80,10,4,10,0.00
2013-10-28,66,61,58,56,52,44,89,73,45,29.93,29.81,17,6,17,0.06
2013-10-29,66,58,50,52,50,46,91,75,50,30.00,29.92,13,4,13,0.00
2013-10-30,72,59,49,53,50,46,92,73,39,30.07,29.97,13,3,13,0.00
2013-10-31,81,63,51,50,45,29,87,57,16,30.08,29.96,14,3,14,0.00
2013-11-1,87,67,50,46,40,30,75,43,13,30.09,29.90,12,3,12,0.00
2013-11-2,81,66,54,60,46,34,91,54,19,29.97,29.86,15,4,15,0.00
2013-11-3,69,63,60,58,55,53,91,76,61,29.92,29.81,12,4,12,0.00
2013-11-4,67,62,55,55,53,50,85,74,61,29.94,29.79,14,3,14,0.00
2013-11-5,78,62,50,53,43,29,93,57,17,30.13,29.94,12,3,12,0.00
2013-11-6,83,65,51,40,30,12,62,32,7,30.19,30.08,9,3,9,0.00
2013-11-7,87,69,56,41,29,11,47,26,6,30.10,29.97,12,3,12,0.00
2013-11-8,77,64,51,58,45,33,93,53,26,30.03,29.91,9,3,9,0.00
2013-11-9,77,62,54,58,50,28,93,71,19,30.06,29.98,10,2,10,0.00
2013-11-10,83,62,51,56,47,32,84,64,16,30.12,30.01,17,3,17,0.00
2013-11-11,81,62,48,54,46,41,85,60,26,30.12,30.00,13,2,13,0.00
2013-11-12,78,63,52,53,48,43,87,61,31,30.15,30.03,8,2,8,0.00
2013-11-13,94,71,53,47,42,31,73,41,11,30.04,29.85,12,2,12,0.00
2013-11-14,91,71,58,59,42,28,91,41,11,29.91,29.75,12,3,12,0.00
2013-11-15,68,63,59,59,56,54,91,79,65,29.76,29.66,15,5,15,0.00
2013-11-16,66,61,56,55,52,49,89,73,54,29.93,29.74,13,4,13,0.00
2013-11-17,69,60,54,54,52,48,87,74,51,30.08,29.93,12,2,12,0.00
2013-11-18,69,60,51,56,53,48,92,79,59,30.15,30.03,12,4,12,0.00
2013-11-19,66,61,57,54,53,51,85,76,63,30.08,29.94,10,3,10,0.00
2013-11-20,65,60,55,57,54,52,93,82,67,29.97,29.88,8,2,8,0.04
2013-11-21,64,60,56,60,56,53,96,88,75,29.89,29.82,13,4,13,0.06
2013-11-22,63,57,53,53,47,41,92,70,47,29.95,29.82,12,2,12,0.01
2013-11-23,68,58,50,48,43,39,78,59,37,30.08,29.94,14,2,14,0.00
2013-11-24,68,57,48,46,43,41,80,62,39,30.18,30.07,12,3,12,0.00
2013-11-25,73,58,46,50,44,41,84,62,33,30.24,30.14,10,2,10,0.00
2013-11-26,79,61,46,52,44,34,83,58,21,30.18,30.02,10,2,10,0.00
2013-11-27,75,62,53,44,41,36,65,47,26,30.03,29.87,10,2,10,0.00
2013-11-28,70,59,49,54,47,40,83,64,39,30.05,29.88,13,2,13,0.00
2013-11-29,64,59,55,55,52,49,93,79,62,30.18,30.05,10,1,10,0.24
2013-11-30,76,61,52,53,49,46,92,69,36,30.18,30.06,10,1,10,0.00
2013-12-1,81,64,50,49,43,34,85,54,19,30.21,30.07,8,1,8,0.00
2013-12-2,75,59,48,48,42,34,77,56,24,30.10,29.91,9,0,9,0.00
2013-12-3,65,57,49,54,49,43,87,76,65,29.91,29.74,16,4,16,0.00
2013-12-4,63,54,47,47,39,29,83,60,41,29.97,29.77,15,3,15,0.00
2013-12-5,61,51,44,41,37,30,79,60,32,30.11,29.95,12,2,12,0.00
2013-12-6,59,51,42,44,40,37,84,68,52,30.19,30.09,12,3,12,0.00
2013-12-7,57,49,42,50,42,38,92,79,59,30.12,30.00,16,1,16,0.18
2013-12-8,57,46,37,42,38,33,93,74,45,30.21,30.10,8,1,8,0.01
2013-12-9,63,49,36,37,25,2,88,48,13,30.30,30.20,12,1,12,0.00
2013-12-10,66,52,38,36,20,8,56,34,11,30.28,30.08,13,3,13,0.00
2013-12-11,75,55,41,40,29,18,62,40,12,30.17,30.09,9,2,9,0.00
2013-12-12,67,56,47,50,44,30,91,67,36,30.21,30.12,10,2,10,0.00
2013-12-13,66,54,45,51,45,38,93,76,36,30.24,30.11,8,1,8,0.00
2013-12-14,76,57,42,45,36,24,90,54,16,30.29,30.17,9,2,9,0.00
2013-12-15,80,62,45,36,30,18,60,35,10,30.23,30.06,10,3,10,0.00
2013-12-16,86,67,53,44,37,27,55,36,12,30.11,30.03,12,3,12,0.00
2013-12-17,77,65,52,51,45,40,68,50,28,30.11,29.99,7,2,7,0.00
2013-12-18,69,61,55,56,52,46,85,73,45,29.99,29.85,12,3,12,0.00
2013-12-19,57,53,47,52,48,44,91,81,69,29.86,29.71,10,3,10,0.24
2013-12-20,63,51,41,50,46,40,95,82,59,29.95,29.77,8,2,8,0.01
2013-12-21,61,52,44,51,47,42,94,83,63,30.09,29.92,9,2,9,0.00
2013-12-22,70,54,43,52,47,41,95,79,43,30.25,30.08,10,2,10,0.01
2013-12-23,76,59,46,48,42,36,91,60,24,30.31,30.17,12,2,12,0.00
2013-12-24,79,62,47,48,40,33,75,49,20,30.19,30.07,7,2,7,0.00
2013-12-25,82,63,50,40,32,18,64,36,9,30.20,30.08,8,3,8,0.00
2013-12-26,82,62,48,33,24,7,45,27,6,30.17,30.04,13,3,13,0.00
2013-12-27,84,62,46,32,25,6,49,30,6,30.15,30.02,8,2,8,0.00
2013-12-28,71,59,50,54,40,26,93,55,20,30.03,29.92,9,2,9,0.00
2013-12-29,77,58,43,51,35,14,96,54,10,30.14,30.00,8,2,8,0.01
2013-12-30,76,57,43,37,28,17,58,38,11,30.26,30.13,7,2,7,0.00
2013-12-31,72,55,42,51,37,26,84,55,19,30.21,30.07,7,2,7,0.00
2014-1-1,74,55,42,52,44,37,90,68,28,30.15,30.03,6,2,6,0.00
2014-1-2,82,60,46,52,44,30,88,63,16,30.11,29.97,9,2,9,0.00